sensor_id;sensor_type;location;lat;lon;timestamp;P1;durP1;ratioP1;P2;durP2;ratioP2
8642;SDS011;4359;49.358;11.256;2023-04-15T00:00:24;22.88;;;13.45;;
8642;SDS011;4359;49.358;11.256;2023-04-15T00:05:15;40.90;;;16.70;;
8642;SDS011;4359;49.358;11.256;2023-04-15T00:07:41;26.55;;;13.80;;
8642;SDS011;4359;49.358;11.256;2023-04-15T00:10:07;25.77;;;13.73;;
8642;SDS011;4359;49.358;11.256;2023-04-15T00:12:33;35.97;;;15.50;;
8642;SDS011;4359;49.358;11.256;2023-04-15T00:17:24;35.97;;;15.27;;
8642;SDS011;4359;49.358;11.256;2023-04-15T00:22:15;21.95;;;13.30;;
8642;SDS011;4359;49.358;11.256;2023-04-15T00:24:42;29.73;;;15.18;;
8642;SDS011;4359;49.358;11.256;2023-04-15T00:29:33;29.13;;;15.05;;
8642;SDS011;4359;49.358;11.256;2023-04-15T00:31:59;35.55;;;16.05;;
8642;SDS011;4359;49.358;11.256;2023-04-15T00:36:51;33.90;;;15.77;;
8642;SDS011;4359;49.358;11.256;2023-04-15T00:39:17;30.63;;;14.45;;
8642;SDS011;4359;49.358;11.256;2023-04-15T00:41:43;30.80;;;14.88;;
8642;SDS011;4359;49.358;11.256;2023-04-15T00:44:09;30.75;;;14.98;;
8642;SDS011;4359;49.358;11.256;2023-04-15T00:49:05;25.17;;;13.93;;
8642;SDS011;4359;49.358;11.256;2023-04-15T00:51:32;29.63;;;14.38;;
8642;SDS011;4359;49.358;11.256;2023-04-15T00:54:00;32.45;;;15.07;;
8642;SDS011;4359;49.358;11.256;2023-04-15T00:56:30;25.80;;;14.18;;
8642;SDS011;4359;49.358;11.256;2023-04-15T00:58:59;27.95;;;14.52;;
8642;SDS011;4359;49.358;11.256;2023-04-15T01:01:26;31.50;;;15.43;;
8642;SDS011;4359;49.358;11.256;2023-04-15T01:03:54;29.40;;;15.63;;
8642;SDS011;4359;49.358;11.256;2023-04-15T01:06:22;30.40;;;16.10;;
8642;SDS011;4359;49.358;11.256;2023-04-15T01:11:14;22.77;;;13.45;;
8642;SDS011;4359;49.358;11.256;2023-04-15T01:13:41;25.08;;;13.90;;
8642;SDS011;4359;49.358;11.256;2023-04-15T01:18:33;27.50;;;15.35;;
8642;SDS011;4359;49.358;11.256;2023-04-15T01:21:00;28.73;;;14.68;;
8642;SDS011;4359;49.358;11.256;2023-04-15T01:23:29;28.92;;;16.10;;
8642;SDS011;4359;49.358;11.256;2023-04-15T01:28:21;28.73;;;15.63;;
8642;SDS011;4359;49.358;11.256;2023-04-15T01:35:40;25.02;;;14.35;;
8642;SDS011;4359;49.358;11.256;2023-04-15T01:38:08;24.52;;;13.48;;
8642;SDS011;4359;49.358;11.256;2023-04-15T01:40:35;25.05;;;14.10;;
8642;SDS011;4359;49.358;11.256;2023-04-15T01:45:27;25.60;;;14.18;;
8642;SDS011;4359;49.358;11.256;2023-04-15T01:47:54;23.58;;;13.63;;
8642;SDS011;4359;49.358;11.256;2023-04-15T01:52:45;31.13;;;15.40;;
8642;SDS011;4359;49.358;11.256;2023-04-15T01:55:12;27.77;;;15.00;;
8642;SDS011;4359;49.358;11.256;2023-04-15T01:57:38;30.42;;;15.68;;
8642;SDS011;4359;49.358;11.256;2023-04-15T02:00:05;33.58;;;17.38;;
8642;SDS011;4359;49.358;11.256;2023-04-15T02:02:34;29.15;;;16.63;;
8642;SDS011;4359;49.358;11.256;2023-04-15T02:07:25;28.13;;;16.05;;
8642;SDS011;4359;49.358;11.256;2023-04-15T02:09:52;28.77;;;16.42;;
8642;SDS011;4359;49.358;11.256;2023-04-15T02:14:44;34.83;;;18.27;;
8642;SDS011;4359;49.358;11.256;2023-04-15T02:17:09;38.15;;;19.73;;
8642;SDS011;4359;49.358;11.256;2023-04-15T02:22:01;37.20;;;18.67;;
8642;SDS011;4359;49.358;11.256;2023-04-15T02:26:53;30.83;;;16.52;;
8642;SDS011;4359;49.358;11.256;2023-04-15T02:29:19;34.65;;;19.15;;
8642;SDS011;4359;49.358;11.256;2023-04-15T02:31:46;33.50;;;17.80;;
8642;SDS011;4359;49.358;11.256;2023-04-15T02:36:38;35.13;;;17.55;;
8642;SDS011;4359;49.358;11.256;2023-04-15T02:39:04;33.13;;;17.52;;
8642;SDS011;4359;49.358;11.256;2023-04-15T02:43:56;33.03;;;15.93;;
8642;SDS011;4359;49.358;11.256;2023-04-15T02:46:21;35.72;;;18.27;;
8642;SDS011;4359;49.358;11.256;2023-04-15T02:51:18;29.10;;;16.85;;
8642;SDS011;4359;49.358;11.256;2023-04-15T02:53:45;30.90;;;17.52;;
8642;SDS011;4359;49.358;11.256;2023-04-15T02:56:11;33.28;;;18.05;;
8642;SDS011;4359;49.358;11.256;2023-04-15T02:58:38;32.08;;;17.88;;
8642;SDS011;4359;49.358;11.256;2023-04-15T03:01:04;30.98;;;18.52;;
8642;SDS011;4359;49.358;11.256;2023-04-15T03:03:31;32.70;;;17.83;;
8642;SDS011;4359;49.358;11.256;2023-04-15T03:08:22;33.08;;;17.55;;
8642;SDS011;4359;49.358;11.256;2023-04-15T03:13:16;31.98;;;16.73;;
8642;SDS011;4359;49.358;11.256;2023-04-15T03:18:07;30.77;;;16.92;;
8642;SDS011;4359;49.358;11.256;2023-04-15T03:20:33;40.13;;;19.27;;
8642;SDS011;4359;49.358;11.256;2023-04-15T03:22:59;40.33;;;19.48;;
8642;SDS011;4359;49.358;11.256;2023-04-15T03:27:51;36.63;;;19.52;;
8642;SDS011;4359;49.358;11.256;2023-04-15T03:32:42;39.55;;;20.10;;
8642;SDS011;4359;49.358;11.256;2023-04-15T03:37:33;34.55;;;18.27;;
8642;SDS011;4359;49.358;11.256;2023-04-15T03:42:25;32.42;;;17.20;;
8642;SDS011;4359;49.358;11.256;2023-04-15T03:44:51;33.50;;;17.90;;
8642;SDS011;4359;49.358;11.256;2023-04-15T03:47:16;37.67;;;19.23;;
8642;SDS011;4359;49.358;11.256;2023-04-15T03:52:07;38.53;;;20.63;;
8642;SDS011;4359;49.358;11.256;2023-04-15T03:56:59;38.30;;;20.55;;
8642;SDS011;4359;49.358;11.256;2023-04-15T03:59:25;40.55;;;20.70;;
8642;SDS011;4359;49.358;11.256;2023-04-15T04:04:16;42.42;;;22.13;;
8642;SDS011;4359;49.358;11.256;2023-04-15T04:06:42;40.28;;;22.10;;
8642;SDS011;4359;49.358;11.256;2023-04-15T04:09:08;42.65;;;22.67;;
8642;SDS011;4359;49.358;11.256;2023-04-15T04:11:33;44.13;;;23.40;;
8642;SDS011;4359;49.358;11.256;2023-04-15T04:16:25;42.00;;;21.02;;
8642;SDS011;4359;49.358;11.256;2023-04-15T04:18:50;39.90;;;21.23;;
8642;SDS011;4359;49.358;11.256;2023-04-15T04:23:42;41.40;;;21.25;;
8642;SDS011;4359;49.358;11.256;2023-04-15T04:26:07;50.60;;;22.70;;
8642;SDS011;4359;49.358;11.256;2023-04-15T04:31:00;43.95;;;21.75;;
8642;SDS011;4359;49.358;11.256;2023-04-15T04:35:51;40.55;;;20.50;;
8642;SDS011;4359;49.358;11.256;2023-04-15T04:40:42;45.60;;;23.40;;
8642;SDS011;4359;49.358;11.256;2023-04-15T04:45:34;43.95;;;21.58;;
8642;SDS011;4359;49.358;11.256;2023-04-15T04:48:00;39.58;;;20.95;;
8642;SDS011;4359;49.358;11.256;2023-04-15T04:52:51;42.72;;;20.15;;
8642;SDS011;4359;49.358;11.256;2023-04-15T04:55:16;39.08;;;20.23;;
8642;SDS011;4359;49.358;11.256;2023-04-15T05:00:08;46.33;;;23.13;;
8642;SDS011;4359;49.358;11.256;2023-04-15T05:02:34;46.42;;;23.70;;
8642;SDS011;4359;49.358;11.256;2023-04-15T05:07:25;42.35;;;21.52;;
8642;SDS011;4359;49.358;11.256;2023-04-15T05:12:17;40.83;;;20.90;;
8642;SDS011;4359;49.358;11.256;2023-04-15T05:17:08;39.20;;;19.70;;
8642;SDS011;4359;49.358;11.256;2023-04-15T05:19:35;42.97;;;21.52;;
8642;SDS011;4359;49.358;11.256;2023-04-15T05:24:26;39.65;;;20.95;;
8642;SDS011;4359;49.358;11.256;2023-04-15T05:26:53;48.70;;;23.45;;
8642;SDS011;4359;49.358;11.256;2023-04-15T05:31:44;48.25;;;21.38;;
8642;SDS011;4359;49.358;11.256;2023-04-15T05:36:36;40.90;;;21.05;;
8642;SDS011;4359;49.358;11.256;2023-04-15T05:39:02;42.25;;;20.75;;
8642;SDS011;4359;49.358;11.256;2023-04-15T05:43:53;37.72;;;20.63;;
8642;SDS011;4359;49.358;11.256;2023-04-15T05:46:19;39.08;;;21.58;;
8642;SDS011;4359;49.358;11.256;2023-04-15T05:48:45;39.33;;;20.83;;
8642;SDS011;4359;49.358;11.256;2023-04-15T05:51:11;39.88;;;21.13;;
8642;SDS011;4359;49.358;11.256;2023-04-15T05:53:36;41.42;;;21.70;;
8642;SDS011;4359;49.358;11.256;2023-04-15T05:58:28;40.20;;;20.58;;
8642;SDS011;4359;49.358;11.256;2023-04-15T06:00:53;42.35;;;21.63;;
8642;SDS011;4359;49.358;11.256;2023-04-15T06:03:19;36.30;;;20.02;;
8642;SDS011;4359;49.358;11.256;2023-04-15T06:05:45;36.90;;;20.42;;
8642;SDS011;4359;49.358;11.256;2023-04-15T06:10:36;34.70;;;20.02;;
8642;SDS011;4359;49.358;11.256;2023-04-15T06:13:02;37.53;;;21.42;;
8642;SDS011;4359;49.358;11.256;2023-04-15T06:15:28;37.10;;;21.13;;
8642;SDS011;4359;49.358;11.256;2023-04-15T06:20:20;35.60;;;20.33;;
8642;SDS011;4359;49.358;11.256;2023-04-15T06:22:45;28.27;;;18.38;;
8642;SDS011;4359;49.358;11.256;2023-04-15T06:25:11;34.33;;;20.40;;
8642;SDS011;4359;49.358;11.256;2023-04-15T06:27:37;31.38;;;18.50;;
8642;SDS011;4359;49.358;11.256;2023-04-15T06:30:03;31.98;;;18.90;;
8642;SDS011;4359;49.358;11.256;2023-04-15T06:32:29;29.20;;;18.77;;
8642;SDS011;4359;49.358;11.256;2023-04-15T06:37:20;23.70;;;15.27;;
8642;SDS011;4359;49.358;11.256;2023-04-15T06:39:46;24.95;;;16.52;;
8642;SDS011;4359;49.358;11.256;2023-04-15T06:42:11;23.95;;;15.90;;
8642;SDS011;4359;49.358;11.256;2023-04-15T06:44:37;24.95;;;16.35;;
8642;SDS011;4359;49.358;11.256;2023-04-15T06:49:29;26.50;;;16.97;;
8642;SDS011;4359;49.358;11.256;2023-04-15T06:51:55;21.13;;;15.82;;
8642;SDS011;4359;49.358;11.256;2023-04-15T06:56:46;20.80;;;14.75;;
8642;SDS011;4359;49.358;11.256;2023-04-15T06:59:12;19.55;;;14.23;;
8642;SDS011;4359;49.358;11.256;2023-04-15T07:01:39;16.25;;;12.25;;
8642;SDS011;4359;49.358;11.256;2023-04-15T07:04:06;21.58;;;12.65;;
8642;SDS011;4359;49.358;11.256;2023-04-15T07:06:31;20.55;;;14.07;;
8642;SDS011;4359;49.358;11.256;2023-04-15T07:08:57;20.30;;;13.00;;
8642;SDS011;4359;49.358;11.256;2023-04-15T07:13:52;17.20;;;12.15;;
8642;SDS011;4359;49.358;11.256;2023-04-15T07:18:43;19.95;;;12.15;;
8642;SDS011;4359;49.358;11.256;2023-04-15T07:21:08;16.85;;;11.65;;
8642;SDS011;4359;49.358;11.256;2023-04-15T07:23:35;21.00;;;13.13;;
8642;SDS011;4359;49.358;11.256;2023-04-15T07:28:26;15.93;;;11.45;;
8642;SDS011;4359;49.358;11.256;2023-04-15T07:30:52;17.95;;;12.52;;
8642;SDS011;4359;49.358;11.256;2023-04-15T07:33:18;18.23;;;11.43;;
8642;SDS011;4359;49.358;11.256;2023-04-15T07:35:43;17.67;;;11.35;;
8642;SDS011;4359;49.358;11.256;2023-04-15T07:38:09;17.33;;;11.57;;
8642;SDS011;4359;49.358;11.256;2023-04-15T07:40:37;15.30;;;10.63;;
8642;SDS011;4359;49.358;11.256;2023-04-15T07:43:03;21.50;;;11.15;;
8642;SDS011;4359;49.358;11.256;2023-04-15T07:45:30;15.02;;;10.57;;
8642;SDS011;4359;49.358;11.256;2023-04-15T07:47:56;15.18;;;10.25;;
8642;SDS011;4359;49.358;11.256;2023-04-15T07:50:22;15.63;;;10.95;;
8642;SDS011;4359;49.358;11.256;2023-04-15T07:52:48;14.05;;;10.02;;
8642;SDS011;4359;49.358;11.256;2023-04-15T07:55:15;16.55;;;10.25;;
8642;SDS011;4359;49.358;11.256;2023-04-15T07:57:44;13.75;;;9.18;;
8642;SDS011;4359;49.358;11.256;2023-04-15T08:00:11;12.45;;;9.38;;
8642;SDS011;4359;49.358;11.256;2023-04-15T08:02:37;13.82;;;9.07;;
8642;SDS011;4359;49.358;11.256;2023-04-15T08:07:29;13.73;;;9.18;;
8642;SDS011;4359;49.358;11.256;2023-04-15T08:09:55;12.38;;;7.25;;
8642;SDS011;4359;49.358;11.256;2023-04-15T08:14:46;13.13;;;7.38;;
8642;SDS011;4359;49.358;11.256;2023-04-15T08:17:12;14.82;;;8.45;;
8642;SDS011;4359;49.358;11.256;2023-04-15T08:19:38;10.32;;;8.32;;
8642;SDS011;4359;49.358;11.256;2023-04-15T08:22:04;10.20;;;7.45;;
8642;SDS011;4359;49.358;11.256;2023-04-15T08:26:56;9.75;;;6.95;;
8642;SDS011;4359;49.358;11.256;2023-04-15T08:29:22;12.23;;;7.22;;
8642;SDS011;4359;49.358;11.256;2023-04-15T08:31:47;9.40;;;6.38;;
8642;SDS011;4359;49.358;11.256;2023-04-15T08:34:13;10.63;;;6.53;;
8642;SDS011;4359;49.358;11.256;2023-04-15T08:36:39;8.18;;;5.82;;
8642;SDS011;4359;49.358;11.256;2023-04-15T08:39:05;8.77;;;4.75;;
8642;SDS011;4359;49.358;11.256;2023-04-15T08:41:33;10.40;;;5.30;;
8642;SDS011;4359;49.358;11.256;2023-04-15T08:44:05;7.13;;;5.20;;
8642;SDS011;4359;49.358;11.256;2023-04-15T08:49:02;9.65;;;5.25;;
8642;SDS011;4359;49.358;11.256;2023-04-15T08:51:29;7.13;;;5.00;;
8642;SDS011;4359;49.358;11.256;2023-04-15T08:53:56;6.35;;;4.63;;
8642;SDS011;4359;49.358;11.256;2023-04-15T08:56:23;10.02;;;5.55;;
8642;SDS011;4359;49.358;11.256;2023-04-15T08:58:52;10.98;;;7.25;;
8642;SDS011;4359;49.358;11.256;2023-04-15T09:03:44;6.57;;;3.40;;
8642;SDS011;4359;49.358;11.256;2023-04-15T09:06:12;5.80;;;3.40;;
8642;SDS011;4359;49.358;11.256;2023-04-15T09:08:39;4.75;;;3.10;;
8642;SDS011;4359;49.358;11.256;2023-04-15T09:13:31;6.43;;;3.25;;
8642;SDS011;4359;49.358;11.256;2023-04-15T09:15:56;5.38;;;3.35;;
8642;SDS011;4359;49.358;11.256;2023-04-15T09:18:32;4.45;;;3.10;;
8642;SDS011;4359;49.358;11.256;2023-04-15T09:21:03;4.45;;;2.95;;
8642;SDS011;4359;49.358;11.256;2023-04-15T09:23:36;4.05;;;2.58;;
8642;SDS011;4359;49.358;11.256;2023-04-15T09:26:03;4.30;;;2.42;;
8642;SDS011;4359;49.358;11.256;2023-04-15T09:28:29;3.72;;;2.65;;
8642;SDS011;4359;49.358;11.256;2023-04-15T09:30:59;4.40;;;2.45;;
8642;SDS011;4359;49.358;11.256;2023-04-15T09:33:27;7.88;;;2.58;;
8642;SDS011;4359;49.358;11.256;2023-04-15T09:35:55;3.67;;;2.53;;
8642;SDS011;4359;49.358;11.256;2023-04-15T09:38:30;3.30;;;2.47;;
8642;SDS011;4359;49.358;11.256;2023-04-15T09:40:56;4.50;;;2.50;;
8642;SDS011;4359;49.358;11.256;2023-04-15T09:43:35;4.05;;;2.47;;
8642;SDS011;4359;49.358;11.256;2023-04-15T09:46:05;4.95;;;2.95;;
8642;SDS011;4359;49.358;11.256;2023-04-15T09:50:57;4.93;;;3.13;;
8642;SDS011;4359;49.358;11.256;2023-04-15T09:53:24;5.90;;;3.10;;
8642;SDS011;4359;49.358;11.256;2023-04-15T09:55:51;4.18;;;2.67;;
8642;SDS011;4359;49.358;11.256;2023-04-15T09:58:22;4.32;;;2.47;;
8642;SDS011;4359;49.358;11.256;2023-04-15T10:00:49;3.08;;;2.28;;
8642;SDS011;4359;49.358;11.256;2023-04-15T10:03:20;3.88;;;2.55;;
8642;SDS011;4359;49.358;11.256;2023-04-15T10:05:50;4.10;;;2.53;;
8642;SDS011;4359;49.358;11.256;2023-04-15T10:08:18;3.97;;;2.55;;
8642;SDS011;4359;49.358;11.256;2023-04-15T10:10:46;4.18;;;2.53;;
8642;SDS011;4359;49.358;11.256;2023-04-15T10:13:13;6.15;;;3.80;;
8642;SDS011;4359;49.358;11.256;2023-04-15T10:15:49;9.45;;;6.80;;
8642;SDS011;4359;49.358;11.256;2023-04-15T10:18:18;7.90;;;5.70;;
8642;SDS011;4359;49.358;11.256;2023-04-15T10:20:47;6.78;;;3.97;;
8642;SDS011;4359;49.358;11.256;2023-04-15T10:23:14;8.95;;;5.63;;
8642;SDS011;4359;49.358;11.256;2023-04-15T10:25:40;5.53;;;3.08;;
8642;SDS011;4359;49.358;11.256;2023-04-15T10:30:35;10.50;;;3.10;;
8642;SDS011;4359;49.358;11.256;2023-04-15T10:33:02;4.35;;;2.67;;
8642;SDS011;4359;49.358;11.256;2023-04-15T10:35:30;4.40;;;2.83;;
8642;SDS011;4359;49.358;11.256;2023-04-15T10:37:56;4.40;;;2.78;;
8642;SDS011;4359;49.358;11.256;2023-04-15T10:40:24;4.28;;;2.80;;
8642;SDS011;4359;49.358;11.256;2023-04-15T10:42:57;5.15;;;2.90;;
8642;SDS011;4359;49.358;11.256;2023-04-15T10:45:31;5.55;;;3.08;;
8642;SDS011;4359;49.358;11.256;2023-04-15T10:47:57;4.97;;;3.38;;
8642;SDS011;4359;49.358;11.256;2023-04-15T10:50:26;7.15;;;3.80;;
8642;SDS011;4359;49.358;11.256;2023-04-15T10:52:54;7.93;;;3.95;;
8642;SDS011;4359;49.358;11.256;2023-04-15T10:55:21;6.80;;;3.90;;
8642;SDS011;4359;49.358;11.256;2023-04-15T10:57:52;7.38;;;4.70;;
8642;SDS011;4359;49.358;11.256;2023-04-15T11:00:20;6.78;;;4.40;;
8642;SDS011;4359;49.358;11.256;2023-04-15T11:05:19;6.70;;;3.95;;
8642;SDS011;4359;49.358;11.256;2023-04-15T11:07:47;5.80;;;4.28;;
8642;SDS011;4359;49.358;11.256;2023-04-15T11:12:41;4.82;;;3.30;;
8642;SDS011;4359;49.358;11.256;2023-04-15T11:17:58;6.15;;;4.53;;
8642;SDS011;4359;49.358;11.256;2023-04-15T11:20:34;5.22;;;2.92;;
8642;SDS011;4359;49.358;11.256;2023-04-15T11:23:01;5.93;;;2.70;;
8642;SDS011;4359;49.358;11.256;2023-04-15T11:25:29;3.60;;;2.60;;
8642;SDS011;4359;49.358;11.256;2023-04-15T11:27:56;4.55;;;2.58;;
8642;SDS011;4359;49.358;11.256;2023-04-15T11:30:25;3.90;;;2.53;;
8642;SDS011;4359;49.358;11.256;2023-04-15T11:33:03;3.20;;;2.35;;
8642;SDS011;4359;49.358;11.256;2023-04-15T11:35:30;3.95;;;2.70;;
8642;SDS011;4359;49.358;11.256;2023-04-15T11:37:56;4.90;;;2.55;;
8642;SDS011;4359;49.358;11.256;2023-04-15T11:40:29;3.90;;;2.25;;
8642;SDS011;4359;49.358;11.256;2023-04-15T11:45:33;4.93;;;2.90;;
8642;SDS011;4359;49.358;11.256;2023-04-15T11:48:06;3.80;;;2.83;;
8642;SDS011;4359;49.358;11.256;2023-04-15T11:53:03;9.00;;;4.45;;
8642;SDS011;4359;49.358;11.256;2023-04-15T11:55:30;4.32;;;3.38;;
8642;SDS011;4359;49.358;11.256;2023-04-15T11:58:09;4.43;;;2.75;;
8642;SDS011;4359;49.358;11.256;2023-04-15T12:03:17;4.30;;;3.05;;
8642;SDS011;4359;49.358;11.256;2023-04-15T12:11:27;2.90;;;2.05;;
8642;SDS011;4359;49.358;11.256;2023-04-15T12:16:44;3.40;;;2.17;;
8642;SDS011;4359;49.358;11.256;2023-04-15T12:19:13;3.05;;;2.10;;
8642;SDS011;4359;49.358;11.256;2023-04-15T12:21:41;2.78;;;2.00;;
8642;SDS011;4359;49.358;11.256;2023-04-15T12:24:09;2.60;;;1.90;;
8642;SDS011;4359;49.358;11.256;2023-04-15T12:29:18;3.38;;;2.35;;
8642;SDS011;4359;49.358;11.256;2023-04-15T12:34:24;3.33;;;2.17;;
8642;SDS011;4359;49.358;11.256;2023-04-15T12:36:52;2.90;;;1.77;;
8642;SDS011;4359;49.358;11.256;2023-04-15T12:39:20;3.88;;;2.00;;
8642;SDS011;4359;49.358;11.256;2023-04-15T12:41:47;3.08;;;1.60;;
8642;SDS011;4359;49.358;11.256;2023-04-15T12:44:13;2.65;;;1.70;;
8642;SDS011;4359;49.358;11.256;2023-04-15T12:49:05;2.28;;;1.40;;
8642;SDS011;4359;49.358;11.256;2023-04-15T12:51:31;2.72;;;1.40;;
8642;SDS011;4359;49.358;11.256;2023-04-15T12:53:56;2.90;;;1.80;;
8642;SDS011;4359;49.358;11.256;2023-04-15T12:56:22;2.88;;;1.75;;
8642;SDS011;4359;49.358;11.256;2023-04-15T12:58:48;3.17;;;1.60;;
8642;SDS011;4359;49.358;11.256;2023-04-15T13:01:14;2.75;;;1.65;;
8642;SDS011;4359;49.358;11.256;2023-04-15T13:03:39;2.83;;;1.70;;
8642;SDS011;4359;49.358;11.256;2023-04-15T13:06:05;3.15;;;1.80;;
8642;SDS011;4359;49.358;11.256;2023-04-15T13:08:31;4.38;;;2.40;;
8642;SDS011;4359;49.358;11.256;2023-04-15T13:10:56;5.57;;;2.63;;
8642;SDS011;4359;49.358;11.256;2023-04-15T13:13:22;3.40;;;2.08;;
8642;SDS011;4359;49.358;11.256;2023-04-15T13:15:48;4.63;;;2.35;;
8642;SDS011;4359;49.358;11.256;2023-04-15T13:18:14;4.18;;;2.58;;
8642;SDS011;4359;49.358;11.256;2023-04-15T13:20:40;3.22;;;1.83;;
8642;SDS011;4359;49.358;11.256;2023-04-15T13:23:05;4.28;;;2.35;;
8642;SDS011;4359;49.358;11.256;2023-04-15T13:25:31;4.15;;;2.60;;
8642;SDS011;4359;49.358;11.256;2023-04-15T13:27:57;4.05;;;2.58;;
8642;SDS011;4359;49.358;11.256;2023-04-15T13:30:23;3.17;;;2.13;;
8642;SDS011;4359;49.358;11.256;2023-04-15T13:32:49;3.80;;;1.75;;
8642;SDS011;4359;49.358;11.256;2023-04-15T13:35:15;3.78;;;1.52;;
8642;SDS011;4359;49.358;11.256;2023-04-15T13:37:41;5.80;;;1.60;;
8642;SDS011;4359;49.358;11.256;2023-04-15T13:40:06;4.03;;;1.60;;
8642;SDS011;4359;49.358;11.256;2023-04-15T13:42:32;2.72;;;1.48;;
8642;SDS011;4359;49.358;11.256;2023-04-15T13:44:58;2.00;;;1.35;;
8642;SDS011;4359;49.358;11.256;2023-04-15T13:47:24;3.10;;;1.58;;
8642;SDS011;4359;49.358;11.256;2023-04-15T13:49:50;3.28;;;1.45;;
8642;SDS011;4359;49.358;11.256;2023-04-15T13:52:16;2.78;;;1.75;;
8642;SDS011;4359;49.358;11.256;2023-04-15T13:54:42;3.40;;;1.70;;
8642;SDS011;4359;49.358;11.256;2023-04-15T13:57:08;2.55;;;1.70;;
8642;SDS011;4359;49.358;11.256;2023-04-15T13:59:33;1.95;;;1.33;;
8642;SDS011;4359;49.358;11.256;2023-04-15T14:01:59;2.30;;;1.60;;
8642;SDS011;4359;49.358;11.256;2023-04-15T14:04:25;2.00;;;1.30;;
8642;SDS011;4359;49.358;11.256;2023-04-15T14:06:51;3.00;;;1.70;;
8642;SDS011;4359;49.358;11.256;2023-04-15T14:09:16;2.72;;;1.50;;
8642;SDS011;4359;49.358;11.256;2023-04-15T14:11:42;2.35;;;1.30;;
8642;SDS011;4359;49.358;11.256;2023-04-15T14:14:08;1.92;;;1.20;;
8642;SDS011;4359;49.358;11.256;2023-04-15T14:16:33;3.67;;;2.10;;
8642;SDS011;4359;49.358;11.256;2023-04-15T14:19:00;2.30;;;1.50;;
8642;SDS011;4359;49.358;11.256;2023-04-15T14:21:26;2.60;;;1.70;;
8642;SDS011;4359;49.358;11.256;2023-04-15T14:23:53;3.35;;;1.95;;
8642;SDS011;4359;49.358;11.256;2023-04-15T14:26:18;2.65;;;1.90;;
8642;SDS011;4359;49.358;11.256;2023-04-15T14:28:44;2.63;;;1.70;;
8642;SDS011;4359;49.358;11.256;2023-04-15T14:31:10;2.58;;;1.70;;
8642;SDS011;4359;49.358;11.256;2023-04-15T14:33:36;2.92;;;1.90;;
8642;SDS011;4359;49.358;11.256;2023-04-15T14:36:01;11.10;;;6.60;;
8642;SDS011;4359;49.358;11.256;2023-04-15T14:38:27;7.50;;;4.97;;
8642;SDS011;4359;49.358;11.256;2023-04-15T14:40:53;3.75;;;2.20;;
8642;SDS011;4359;49.358;11.256;2023-04-15T14:43:19;3.30;;;1.70;;
8642;SDS011;4359;49.358;11.256;2023-04-15T14:45:45;2.30;;;1.50;;
8642;SDS011;4359;49.358;11.256;2023-04-15T14:48:11;2.28;;;1.58;;
8642;SDS011;4359;49.358;11.256;2023-04-15T14:53:03;5.03;;;2.35;;
8642;SDS011;4359;49.358;11.256;2023-04-15T14:55:28;3.67;;;1.90;;
8642;SDS011;4359;49.358;11.256;2023-04-15T14:57:54;2.70;;;1.90;;
8642;SDS011;4359;49.358;11.256;2023-04-15T15:00:20;4.10;;;2.10;;
8642;SDS011;4359;49.358;11.256;2023-04-15T15:05:11;3.72;;;1.88;;
8642;SDS011;4359;49.358;11.256;2023-04-15T15:07:37;2.67;;;1.60;;
8642;SDS011;4359;49.358;11.256;2023-04-15T15:10:04;3.72;;;2.63;;
8642;SDS011;4359;49.358;11.256;2023-04-15T15:12:31;3.90;;;1.98;;
8642;SDS011;4359;49.358;11.256;2023-04-15T15:14:57;3.35;;;2.30;;
8642;SDS011;4359;49.358;11.256;2023-04-15T15:17:22;4.13;;;2.72;;
8642;SDS011;4359;49.358;11.256;2023-04-15T15:19:48;4.47;;;2.17;;
8642;SDS011;4359;49.358;11.256;2023-04-15T15:22:14;3.00;;;2.08;;
8642;SDS011;4359;49.358;11.256;2023-04-15T15:24:40;3.08;;;2.05;;
8642;SDS011;4359;49.358;11.256;2023-04-15T15:27:05;2.95;;;2.08;;
8642;SDS011;4359;49.358;11.256;2023-04-15T15:29:31;4.55;;;2.17;;
8642;SDS011;4359;49.358;11.256;2023-04-15T15:31:56;2.80;;;1.88;;
8642;SDS011;4359;49.358;11.256;2023-04-15T15:36:48;5.88;;;1.98;;
8642;SDS011;4359;49.358;11.256;2023-04-15T15:39:13;2.58;;;1.90;;
8642;SDS011;4359;49.358;11.256;2023-04-15T15:41:40;2.70;;;2.00;;
8642;SDS011;4359;49.358;11.256;2023-04-15T15:44:05;3.65;;;2.30;;
8642;SDS011;4359;49.358;11.256;2023-04-15T15:46:31;4.15;;;2.72;;
8642;SDS011;4359;49.358;11.256;2023-04-15T15:51:22;4.13;;;2.85;;
8642;SDS011;4359;49.358;11.256;2023-04-15T15:53:48;4.85;;;3.08;;
8642;SDS011;4359;49.358;11.256;2023-04-15T15:56:14;5.78;;;3.13;;
8642;SDS011;4359;49.358;11.256;2023-04-15T15:58:40;4.32;;;3.03;;
8642;SDS011;4359;49.358;11.256;2023-04-15T16:01:09;4.45;;;3.00;;
8642;SDS011;4359;49.358;11.256;2023-04-15T16:03:35;5.80;;;2.70;;
8642;SDS011;4359;49.358;11.256;2023-04-15T16:06:00;3.60;;;2.85;;
8642;SDS011;4359;49.358;11.256;2023-04-15T16:10:51;5.50;;;2.75;;
8642;SDS011;4359;49.358;11.256;2023-04-15T16:13:18;4.05;;;3.00;;
8642;SDS011;4359;49.358;11.256;2023-04-15T16:15:44;3.20;;;2.50;;
8642;SDS011;4359;49.358;11.256;2023-04-15T16:20:35;3.95;;;3.00;;
8642;SDS011;4359;49.358;11.256;2023-04-15T16:23:03;4.65;;;3.25;;
8642;SDS011;4359;49.358;11.256;2023-04-15T16:25:37;6.32;;;4.07;;
8642;SDS011;4359;49.358;11.256;2023-04-15T16:28:02;5.82;;;3.50;;
8642;SDS011;4359;49.358;11.256;2023-04-15T16:30:28;5.57;;;3.55;;
8642;SDS011;4359;49.358;11.256;2023-04-15T16:32:55;6.55;;;3.88;;
8642;SDS011;4359;49.358;11.256;2023-04-15T16:35:21;6.82;;;4.30;;
8642;SDS011;4359;49.358;11.256;2023-04-15T16:37:47;4.90;;;3.97;;
8642;SDS011;4359;49.358;11.256;2023-04-15T16:42:38;9.40;;;3.75;;
8642;SDS011;4359;49.358;11.256;2023-04-15T16:45:07;4.60;;;3.70;;
8642;SDS011;4359;49.358;11.256;2023-04-15T16:49:58;6.17;;;3.87;;
8642;SDS011;4359;49.358;11.256;2023-04-15T16:54:49;10.55;;;7.40;;
8642;SDS011;4359;49.358;11.256;2023-04-15T16:57:15;6.30;;;4.50;;
8642;SDS011;4359;49.358;11.256;2023-04-15T17:02:08;5.88;;;4.40;;
8642;SDS011;4359;49.358;11.256;2023-04-15T17:04:36;7.70;;;4.40;;
8642;SDS011;4359;49.358;11.256;2023-04-15T17:09:28;18.60;;;13.73;;
8642;SDS011;4359;49.358;11.256;2023-04-15T17:11:53;8.52;;;6.32;;
8642;SDS011;4359;49.358;11.256;2023-04-15T17:14:19;6.53;;;4.85;;
8642;SDS011;4359;49.358;11.256;2023-04-15T17:19:11;5.05;;;3.95;;
8642;SDS011;4359;49.358;11.256;2023-04-15T17:21:37;5.25;;;4.03;;
8642;SDS011;4359;49.358;11.256;2023-04-15T17:24:03;7.05;;;4.32;;
8642;SDS011;4359;49.358;11.256;2023-04-15T17:26:29;5.63;;;4.28;;
8642;SDS011;4359;49.358;11.256;2023-04-15T17:31:21;4.85;;;3.67;;
8642;SDS011;4359;49.358;11.256;2023-04-15T17:33:46;6.45;;;4.05;;
8642;SDS011;4359;49.358;11.256;2023-04-15T17:36:12;8.90;;;4.07;;
8642;SDS011;4359;49.358;11.256;2023-04-15T17:41:04;6.00;;;4.43;;
8642;SDS011;4359;49.358;11.256;2023-04-15T17:43:31;7.40;;;3.80;;
8642;SDS011;4359;49.358;11.256;2023-04-15T17:48:24;7.78;;;5.55;;
8642;SDS011;4359;49.358;11.256;2023-04-15T17:50:50;5.93;;;4.63;;
8642;SDS011;4359;49.358;11.256;2023-04-15T17:55:41;6.40;;;5.20;;
8642;SDS011;4359;49.358;11.256;2023-04-15T18:00:32;8.90;;;5.60;;
8642;SDS011;4359;49.358;11.256;2023-04-15T18:05:23;7.65;;;6.38;;
8642;SDS011;4359;49.358;11.256;2023-04-15T18:10:16;11.07;;;8.02;;
8642;SDS011;4359;49.358;11.256;2023-04-15T18:12:41;12.73;;;8.63;;
8642;SDS011;4359;49.358;11.256;2023-04-15T18:15:07;10.77;;;8.50;;
8642;SDS011;4359;49.358;11.256;2023-04-15T18:17:34;11.10;;;9.18;;
8642;SDS011;4359;49.358;11.256;2023-04-15T18:20:00;11.80;;;9.13;;
8642;SDS011;4359;49.358;11.256;2023-04-15T18:24:51;14.38;;;9.35;;
8642;SDS011;4359;49.358;11.256;2023-04-15T18:27:18;13.13;;;10.07;;
8642;SDS011;4359;49.358;11.256;2023-04-15T18:32:10;14.77;;;10.70;;
8642;SDS011;4359;49.358;11.256;2023-04-15T18:34:35;15.75;;;11.18;;
8642;SDS011;4359;49.358;11.256;2023-04-15T18:37:01;18.48;;;13.65;;
8642;SDS011;4359;49.358;11.256;2023-04-15T18:41:54;22.10;;;14.65;;